createdAt,value
2023-06-28T00:02:40.243Z,8.95
2023-06-28T00:07:37.581Z,6.68
2023-06-28T00:12:35.509Z,6.90
2023-06-28T00:17:32.369Z,6.82
2023-06-28T00:22:30.332Z,6.38
2023-06-28T00:27:27.630Z,7.78
2023-06-28T00:32:25.096Z,7.07
2023-06-28T00:37:22.025Z,6.82
2023-06-28T00:42:20.418Z,6.43
2023-06-28T00:47:19.374Z,6.22
2023-06-28T00:52:16.192Z,12.65
2023-06-28T00:57:13.332Z,6.55
2023-06-28T01:02:11.717Z,7.38
2023-06-28T01:07:09.469Z,7.30
2023-06-28T01:12:07.712Z,7.30
2023-06-28T01:17:05.360Z,7.50
2023-06-28T01:22:05.942Z,7.05
2023-06-28T01:27:05.133Z,7.15
2023-06-28T01:32:05.130Z,9.52
2023-06-28T01:37:03.986Z,6.65
2023-06-28T01:42:01.575Z,6.95
2023-06-28T01:46:59.432Z,6.35
2023-06-28T01:51:57.250Z,7.53
2023-06-28T01:56:54.107Z,6.93
2023-06-28T02:01:50.933Z,7.68
2023-06-28T02:06:48.769Z,7.47
2023-06-28T02:11:45.650Z,9.00
2023-06-28T02:16:42.513Z,6.20
2023-06-28T02:21:41.417Z,6.90
2023-06-28T02:26:38.923Z,8.90
2023-06-28T02:31:35.927Z,7.43
2023-06-28T02:36:33.129Z,7.72
2023-06-28T02:41:29.886Z,6.88
2023-06-28T02:46:27.460Z,6.38
2023-06-28T02:51:24.415Z,8.73
2023-06-28T02:56:23.646Z,10.00
2023-06-28T03:01:44.248Z,6.78
2023-06-28T03:06:41.505Z,9.18
2023-06-28T03:11:38.391Z,8.55
2023-06-28T03:16:35.323Z,9.30
2023-06-28T03:21:34.312Z,9.68
2023-06-28T03:26:31.697Z,12.38
2023-06-28T03:31:28.567Z,7.93
2023-06-28T03:36:28.148Z,9.93
2023-06-28T03:41:27.490Z,7.47
2023-06-28T03:46:24.625Z,8.73
2023-06-28T03:51:21.482Z,8.07
2023-06-28T03:56:18.417Z,7.75
2023-06-28T04:01:18.756Z,8.95
2023-06-28T04:06:15.548Z,11.02
2023-06-28T04:11:12.500Z,9.10
2023-06-28T04:16:09.324Z,8.50
2023-06-28T04:21:06.982Z,9.15
2023-06-28T04:26:04.071Z,7.50
2023-06-28T04:31:00.955Z,10.55
2023-06-28T04:35:58.462Z,11.73
2023-06-28T04:40:56.076Z,8.60
2023-06-28T04:45:56.239Z,8.48
2023-06-28T04:50:53.211Z,10.80
2023-06-28T04:55:50.080Z,9.18
2023-06-28T05:00:48.182Z,10.20
2023-06-28T05:05:45.518Z,10.27
2023-06-28T05:10:42.686Z,8.55
2023-06-28T05:15:39.660Z,12.98
2023-06-28T05:20:37.517Z,10.75
2023-06-28T05:25:34.395Z,8.38
2023-06-28T05:30:31.363Z,12.73
2023-06-28T05:35:28.308Z,8.77
2023-06-28T05:40:27.028Z,8.98
2023-06-28T05:45:24.132Z,8.32
2023-06-28T05:50:22.298Z,7.90
2023-06-28T05:55:19.257Z,8.35
2023-06-28T06:00:18.038Z,7.97
2023-06-28T06:05:15.407Z,10.48
2023-06-28T06:10:15.417Z,7.35
2023-06-28T06:15:12.929Z,7.55
2023-06-28T06:20:11.329Z,9.40
2023-06-28T06:25:09.111Z,8.05
2023-06-28T06:30:07.844Z,7.35
2023-06-28T06:35:07.313Z,7.88
2023-06-28T06:40:06.047Z,8.55
2023-06-28T06:45:02.962Z,10.95
2023-06-28T06:49:59.764Z,7.05
2023-06-28T06:54:56.593Z,9.75
2023-06-28T06:59:54.186Z,7.63
2023-06-28T07:04:51.165Z,6.88
2023-06-28T07:09:48.201Z,6.93
2023-06-28T07:14:45.044Z,7.10
2023-06-28T07:19:43.077Z,5.70
2023-06-28T07:24:39.876Z,6.10
2023-06-28T07:29:37.370Z,6.88
2023-06-28T07:34:34.192Z,6.80
2023-06-28T07:39:31.678Z,10.02
2023-06-28T07:44:28.435Z,12.13
2023-06-28T07:49:25.241Z,7.55
2023-06-28T07:54:33.069Z,11.20
2023-06-28T07:59:31.845Z,6.50
2023-06-28T08:04:29.008Z,6.78
2023-06-28T08:09:26.196Z,7.72
2023-06-28T08:14:22.991Z,8.98
2023-06-28T08:19:20.510Z,10.13
2023-06-28T08:24:17.986Z,7.05
2023-06-28T08:29:17.068Z,5.55
2023-06-28T08:34:16.313Z,6.88
2023-06-28T08:39:13.896Z,6.27
2023-06-28T08:44:13.693Z,9.25
2023-06-28T08:49:10.783Z,7.47
2023-06-28T08:54:08.816Z,8.65
2023-06-28T08:59:06.753Z,8.15
2023-06-28T09:04:05.708Z,5.90
2023-06-28T09:09:03.802Z,8.02
2023-06-28T09:14:00.608Z,9.38
2023-06-28T09:18:59.197Z,9.65
2023-06-28T09:23:56.149Z,7.25
2023-06-28T09:28:53.183Z,9.25
2023-06-28T09:33:57.728Z,10.13
2023-06-28T09:39:00.902Z,5.00
2023-06-28T09:44:02.663Z,8.23
2023-06-28T09:49:00.397Z,10.35
2023-06-28T09:54:01.782Z,7.10
2023-06-28T09:59:00.296Z,5.82
2023-06-28T10:03:58.913Z,6.07
2023-06-28T10:08:59.333Z,6.97
2023-06-28T10:13:56.684Z,6.35
2023-06-28T10:18:54.837Z,5.30
2023-06-28T10:23:52.689Z,12.23
2023-06-28T10:28:50.894Z,6.80
2023-06-28T10:33:48.817Z,7.45
2023-06-28T10:38:45.685Z,10.60
2023-06-28T10:43:42.922Z,9.07
2023-06-28T10:48:46.256Z,10.15
2023-06-28T10:53:52.365Z,12.18
2023-06-28T10:58:55.760Z,10.15
2023-06-28T11:03:53.889Z,11.00
2023-06-28T11:08:52.583Z,10.27
2023-06-28T11:13:50.294Z,9.57
2023-06-28T11:18:48.217Z,7.97
2023-06-28T11:23:47.185Z,9.50
2023-06-28T11:28:51.565Z,12.45
2023-06-28T11:33:51.261Z,7.57
2023-06-28T11:38:48.915Z,10.02
2023-06-28T11:43:47.484Z,5.53
2023-06-28T11:48:46.179Z,7.00
2023-06-28T11:53:49.713Z,8.35
2023-06-28T11:58:46.717Z,8.90
2023-06-28T12:03:43.653Z,7.90
2023-06-28T12:08:42.097Z,10.15
2023-06-28T12:13:39.919Z,5.85
2023-06-28T12:18:54.599Z,4.80
2023-06-28T12:23:51.603Z,7.90
2023-06-28T12:28:50.693Z,6.00
2023-06-28T12:33:53.812Z,6.35
2023-06-28T12:38:50.767Z,7.78
2023-06-28T12:43:57.296Z,11.45
2023-06-28T12:48:58.402Z,10.43
2023-06-28T12:53:55.128Z,8.75
2023-06-28T12:58:52.268Z,6.85
2023-06-28T13:03:55.339Z,13.65
2023-06-28T13:08:52.920Z,8.82
2023-06-28T13:13:51.022Z,5.68
2023-06-28T13:18:47.813Z,5.53
2023-06-28T13:23:45.636Z,6.93
2023-06-28T13:28:44.373Z,7.25
2023-06-28T13:33:41.282Z,6.30
2023-06-28T13:38:38.601Z,8.25
2023-06-28T13:43:36.615Z,5.57
2023-06-28T13:48:33.374Z,9.38
2023-06-28T13:53:30.698Z,6.13
2023-06-28T13:58:28.440Z,7.15
2023-06-28T14:03:26.080Z,8.05
2023-06-28T14:08:23.020Z,8.60
2023-06-28T14:13:19.905Z,7.95
2023-06-28T14:18:16.833Z,5.20
2023-06-28T14:23:14.365Z,5.18
2023-06-28T14:28:11.826Z,4.57
2023-06-28T14:33:08.715Z,4.57
2023-06-28T14:38:05.959Z,4.90
2023-06-28T14:43:03.374Z,6.88
2023-06-28T14:48:00.419Z,6.68
2023-06-28T14:52:57.288Z,7.55
2023-06-28T14:57:53.991Z,5.00
2023-06-28T15:02:51.644Z,6.97
2023-06-28T15:07:48.645Z,6.82
2023-06-28T15:12:45.435Z,6.93
2023-06-28T15:17:42.357Z,6.97
2023-06-28T15:22:39.985Z,5.40
2023-06-28T15:27:38.449Z,6.18
2023-06-28T15:32:36.536Z,5.88
2023-06-28T15:37:34.807Z,6.97
2023-06-28T15:42:32.414Z,5.30
2023-06-28T15:47:29.164Z,5.57
2023-06-28T15:52:29.673Z,6.70
2023-06-28T15:57:26.529Z,6.05
2023-06-28T16:02:24.340Z,5.20
2023-06-28T16:07:21.717Z,8.68
2023-06-28T16:12:18.540Z,12.45
2023-06-28T16:17:16.717Z,6.18
2023-06-28T16:22:17.509Z,7.35
2023-06-28T16:27:20.052Z,8.23
2023-06-28T16:32:21.672Z,10.27
2023-06-28T16:37:24.028Z,17.38
2023-06-28T16:42:20.887Z,14.35
2023-06-28T16:47:23.119Z,9.07
2023-06-28T16:52:21.859Z,11.13
2023-06-28T16:57:19.120Z,7.80
2023-06-28T17:02:17.413Z,6.75
2023-06-28T17:07:15.565Z,7.47
2023-06-28T17:12:13.790Z,6.47
2023-06-28T17:17:10.622Z,4.85
2023-06-28T17:22:08.302Z,5.03
2023-06-28T17:27:05.937Z,4.00
2023-06-28T17:32:03.971Z,4.65
2023-06-28T17:37:00.857Z,5.07
2023-06-28T17:41:57.723Z,4.78
2023-06-28T17:46:54.569Z,5.75
2023-06-28T17:51:51.979Z,6.20
2023-06-28T17:56:48.816Z,4.40
2023-06-28T18:01:45.893Z,4.60
2023-06-28T18:06:42.820Z,4.70
2023-06-28T18:11:40.426Z,5.28
2023-06-28T18:16:38.868Z,6.03
2023-06-28T18:21:35.637Z,5.07
2023-06-28T18:26:32.377Z,4.30
2023-06-28T18:31:29.946Z,5.30
2023-06-28T18:36:26.703Z,4.20
2023-06-28T18:41:24.077Z,6.18
2023-06-28T18:46:20.938Z,4.65
2023-06-28T18:51:19.237Z,4.88
2023-06-28T18:56:18.392Z,4.85
2023-06-28T19:01:15.186Z,4.18
2023-06-28T19:06:12.087Z,4.03
2023-06-28T19:11:09.570Z,5.80
2023-06-28T19:16:06.480Z,8.38
2023-06-28T19:21:03.480Z,6.68
2023-06-28T19:26:00.432Z,5.50
2023-06-28T19:30:58.095Z,8.05
2023-06-28T19:35:55.038Z,6.50
2023-06-28T19:40:51.857Z,6.45
2023-06-28T19:45:48.718Z,6.20
2023-06-28T19:50:46.441Z,6.88
2023-06-28T19:55:46.674Z,10.52
2023-06-28T20:00:44.022Z,9.65
2023-06-28T20:05:41.363Z,7.53
2023-06-28T20:10:38.936Z,4.60
2023-06-28T20:15:35.786Z,4.25
2023-06-28T20:20:32.562Z,4.18
2023-06-28T20:25:29.432Z,4.55
2023-06-28T20:30:26.892Z,4.28
2023-06-28T20:35:24.940Z,4.22
2023-06-28T20:40:23.127Z,3.00
2023-06-28T20:45:21.848Z,6.32
2023-06-28T20:50:19.527Z,7.10
2023-06-28T20:55:16.397Z,4.15
2023-06-28T21:00:15.942Z,3.58
2023-06-28T21:05:12.897Z,3.20
2023-06-28T21:10:11.000Z,5.00
2023-06-28T21:15:09.236Z,4.50
2023-06-28T21:20:09.327Z,4.18
2023-06-28T21:25:06.944Z,2.83
2023-06-28T21:30:07.096Z,2.90
2023-06-28T21:35:04.194Z,2.80
2023-06-28T21:40:00.960Z,4.93
2023-06-28T21:44:57.704Z,2.97
2023-06-28T21:49:55.176Z,2.63
2023-06-28T21:54:51.951Z,5.95
2023-06-28T21:59:48.983Z,2.78
2023-06-28T22:04:45.885Z,4.70
2023-06-28T22:09:45.384Z,3.67
2023-06-28T22:14:45.949Z,2.92
2023-06-28T22:19:42.761Z,3.70
2023-06-28T22:24:39.595Z,6.28
2023-06-28T22:29:38.175Z,3.80
2023-06-28T22:34:34.966Z,4.82
2023-06-28T22:39:31.779Z,2.58
2023-06-28T22:44:28.555Z,4.30
2023-06-28T22:49:27.060Z,4.60
2023-06-28T22:54:26.615Z,6.70
2023-06-28T22:59:23.494Z,4.85
2023-06-28T23:04:20.263Z,6.15
2023-06-28T23:09:17.741Z,4.75
2023-06-28T23:14:15.214Z,5.65
2023-06-28T23:19:11.996Z,6.72
2023-06-28T23:24:08.867Z,6.05
2023-06-28T23:29:06.402Z,8.63
2023-06-28T23:34:03.270Z,10.02
2023-06-28T23:39:00.150Z,7.97
2023-06-28T23:44:01.748Z,10.20
2023-06-28T23:49:00.978Z,10.65
2023-06-28T23:54:00.476Z,10.90
2023-06-28T23:58:57.738Z,15.10
